Time;durP1;ratioP1;P1;durP2;ratioP2;P2;SDS_P1;SDS_P2;PMS_P1;PMS_P2;Temp;Humidity;BMP_temperature;BMP_pressure;BME280_temperature;BME280_humidity;BME280_pressure;Samples;Min_cycle;Max_cycle;Signal;HPM_P1;HPM_P2
2024/01/25 00:00:50;;;;;;;34.00;7.07;;;8.10;99.90;;;;;;5109561;28;20495;-51
2024/01/25 00:03:16;;;;;;;32.67;6.65;;;8.10;99.90;;;;;;5108140;28;20030;-50
2024/01/25 00:05:41;;;;;;;33.53;6.85;;;8.10;99.90;;;;;;5109633;28;20477;-51
2024/01/25 00:08:07;;;;;;;40.30;7.03;;;8.10;99.90;;;;;;5108118;28;20024;-52
2024/01/25 00:10:33;;;;;;;32.60;6.40;;;8.10;99.90;;;;;;5109806;28;20023;-52
2024/01/25 00:12:59;;;;;;;35.72;6.22;;;8.10;99.90;;;;;;5109658;28;20047;-52
2024/01/25 00:15:24;;;;;;;33.92;6.07;;;8.10;99.90;;;;;;5109199;28;20027;-51
2024/01/25 00:17:50;;;;;;;38.65;6.50;;;8.10;99.90;;;;;;5109731;28;20031;-50
2024/01/25 00:20:16;;;;;;;37.15;6.55;;;8.10;99.90;;;;;;5109121;28;20047;-53
2024/01/25 00:22:41;;;;;;;29.88;6.80;;;8.10;99.90;;;;;;5109754;28;20535;-53
2024/01/25 00:25:07;;;;;;;38.13;7.25;;;8.10;99.90;;;;;;5109594;28;20031;-50
2024/01/25 00:27:33;;;;;;;35.25;7.38;;;8.10;99.90;;;;;;5109278;28;20283;-51
2024/01/25 00:29:59;;;;;;;50.83;7.82;;;8.00;99.90;;;;;;5109853;28;20031;-52
2024/01/25 00:32:24;;;;;;;41.13;7.07;;;8.10;99.90;;;;;;5109020;28;20019;-51
2024/01/25 00:34:50;;;;;;;32.17;6.07;;;8.10;99.90;;;;;;5109777;28;20020;-53
2024/01/25 00:37:16;;;;;;;35.95;7.32;;;8.10;99.90;;;;;;5109587;28;20039;-52
2024/01/25 00:39:42;;;;;;;30.70;7.28;;;8.10;99.90;;;;;;5109329;28;20034;-53
2024/01/25 00:42:10;;;;;;;30.13;6.78;;;8.10;99.90;;;;;;5109240;28;20393;-52
2024/01/25 00:44:36;;;;;;;39.40;7.35;;;8.10;99.90;;;;;;5107921;28;20023;-49
2024/01/25 00:47:02;;;;;;;42.60;7.22;;;8.10;99.90;;;;;;5104835;28;20051;-53
2024/01/25 00:49:28;;;;;;;29.90;7.40;;;8.10;99.90;;;;;;5098634;28;20059;-53
2024/01/25 00:51:59;;;;;;;33.15;6.63;;;8.10;99.90;;;;;;5089024;28;20131;-53
2024/01/25 00:54:25;;;;;;;37.25;6.93;;;8.10;99.90;;;;;;5089182;28;20031;-52
2024/01/25 00:56:52;;;;;;;38.50;6.28;;;8.10;99.90;;;;;;5089278;28;20024;-56
2024/01/25 00:59:19;;;;;;;38.67;6.10;;;8.10;99.90;;;;;;5088991;28;20051;-51
2024/01/25 01:01:47;;;;;;;30.48;6.10;;;8.10;99.90;;;;;;5087788;28;20024;-53
2024/01/25 01:04:14;;;;;;;28.00;5.70;;;8.00;99.90;;;;;;5089092;28;20165;-52
2024/01/25 01:06:40;;;;;;;35.72;6.47;;;8.00;99.90;;;;;;5089123;28;20078;-52
2024/01/25 01:09:06;;;;;;;24.75;6.03;;;8.00;99.90;;;;;;5089742;28;20562;-53
2024/01/25 01:11:31;;;;;;;34.55;7.35;;;8.00;99.90;;;;;;5089652;28;20008;-53
2024/01/25 01:13:57;;;;;;;32.92;6.70;;;8.10;99.90;;;;;;5089768;28;20425;-52
2024/01/25 01:16:23;;;;;;;34.05;6.60;;;8.10;99.90;;;;;;5089649;28;20027;-52
2024/01/25 01:18:48;;;;;;;30.50;5.47;;;8.10;99.90;;;;;;5089604;28;20027;-50
2024/01/25 01:21:14;;;;;;;35.38;5.65;;;8.10;99.90;;;;;;5089282;28;20081;-52
2024/01/25 01:23:39;;;;;;;43.08;6.88;;;8.00;99.90;;;;;;5089568;28;20039;-52
2024/01/25 01:26:05;;;;;;;25.75;5.45;;;8.00;99.90;;;;;;5089350;28;20032;-50
2024/01/25 01:28:31;;;;;;;22.60;5.53;;;8.00;99.90;;;;;;5089597;28;20480;-52
2024/01/25 01:30:58;;;;;;;39.75;7.43;;;8.00;99.90;;;;;;5089095;28;20031;-51
2024/01/25 01:33:23;;;;;;;33.03;7.13;;;8.10;99.90;;;;;;5090060;28;20108;-53
2024/01/25 01:35:49;;;;;;;36.10;5.80;;;8.10;99.90;;;;;;5090224;28;20292;-56
2024/01/25 01:38:14;;;;;;;34.72;6.50;;;8.00;99.90;;;;;;5090016;28;20477;-51
2024/01/25 01:40:40;;;;;;;42.55;6.68;;;8.00;99.90;;;;;;5088948;28;20053;-52
2024/01/25 01:43:06;;;;;;;34.65;5.57;;;8.00;99.90;;;;;;5089729;28;20030;-51
2024/01/25 01:45:31;;;;;;;30.52;6.00;;;8.00;99.90;;;;;;5090491;28;20051;-53
2024/01/25 01:47:58;;;;;;;30.38;7.18;;;8.00;99.90;;;;;;5089630;28;20024;-50
2024/01/25 01:50:24;;;;;;;26.92;6.53;;;8.00;99.90;;;;;;5089730;28;20031;-52
2024/01/25 01:52:51;;;;;;;30.50;6.70;;;8.00;99.90;;;;;;5089448;28;20032;-53
2024/01/25 01:55:17;;;;;;;47.28;6.97;;;8.00;99.90;;;;;;5090215;28;20073;-53
2024/01/25 01:57:45;;;;;;;26.35;7.13;;;8.00;99.90;;;;;;5088387;28;20052;-51
2024/01/25 02:00:14;;;;;;;40.78;7.20;;;8.00;99.90;;;;;;5090112;28;20020;-52
2024/01/25 02:02:40;;;;;;;37.17;6.93;;;8.00;99.90;;;;;;5082520;28;20023;-52
2024/01/25 02:05:05;;;;;;;33.92;5.93;;;8.00;99.90;;;;;;5088616;28;20576;-53
2024/01/25 02:07:31;;;;;;;32.45;6.90;;;7.90;99.90;;;;;;5090699;28;20028;-50
2024/01/25 02:09:57;;;;;;;35.05;6.90;;;8.00;99.90;;;;;;5090265;28;20598;-53
2024/01/25 02:12:22;;;;;;;31.88;6.40;;;8.00;99.90;;;;;;5090388;28;20024;-51
2024/01/25 02:14:48;;;;;;;32.28;6.65;;;7.90;99.90;;;;;;5089825;28;20020;-51
2024/01/25 02:17:14;;;;;;;31.42;6.07;;;7.90;99.90;;;;;;5093296;28;20077;-52
2024/01/25 02:19:39;;;;;;;32.03;6.38;;;7.90;99.90;;;;;;5093818;28;20020;-56
2024/01/25 02:22:06;;;;;;;41.08;7.10;;;7.90;99.90;;;;;;5093995;28;20024;-53
2024/01/25 02:24:31;;;;;;;37.70;7.95;;;7.90;99.90;;;;;;5095210;28;20020;-53
2024/01/25 02:26:57;;;;;;;30.33;6.50;;;7.90;99.90;;;;;;5092883;28;20073;-53
2024/01/25 02:29:23;;;;;;;32.90;6.60;;;7.80;99.90;;;;;;5094832;28;20146;-53
2024/01/25 02:31:48;;;;;;;43.30;7.38;;;7.90;99.90;;;;;;5094173;28;20117;-53
2024/01/25 02:34:14;;;;;;;39.70;6.80;;;7.90;99.90;;;;;;5094735;28;20484;-52
2024/01/25 02:36:40;;;;;;;35.03;7.65;;;7.90;99.90;;;;;;5094282;28;20077;-53
2024/01/25 02:39:05;;;;;;;36.95;7.05;;;7.90;99.90;;;;;;5093673;28;20362;-51
2024/01/25 02:41:32;;;;;;;28.35;5.80;;;7.90;99.90;;;;;;5093332;28;20019;-50
2024/01/25 02:43:57;;;;;;;36.53;5.97;;;7.90;99.90;;;;;;5094206;28;20027;-53
2024/01/25 02:46:23;;;;;;;39.03;7.25;;;7.90;99.90;;;;;;5093593;28;20405;-53
2024/01/25 02:48:49;;;;;;;39.80;6.43;;;7.90;99.90;;;;;;5093842;28;20066;-53
2024/01/25 02:51:15;;;;;;;30.10;6.70;;;7.90;99.90;;;;;;5093121;28;20032;-53
2024/01/25 02:53:40;;;;;;;33.25;6.18;;;7.90;99.90;;;;;;5094679;28;20092;-53
2024/01/25 02:56:07;;;;;;;44.85;6.25;;;7.80;99.90;;;;;;5094070;28;20024;-53
2024/01/25 02:58:32;;;;;;;30.75;6.68;;;7.80;99.90;;;;;;5095037;28;20016;-52
2024/01/25 03:00:58;;;;;;;29.10;6.75;;;7.80;99.90;;;;;;5092397;28;20039;-53
2024/01/25 03:03:24;;;;;;;32.63;6.60;;;7.80;99.90;;;;;;5094078;28;20024;-52
2024/01/25 03:05:51;;;;;;;27.13;5.57;;;7.80;99.90;;;;;;5093899;28;20484;-52
2024/01/25 03:08:17;;;;;;;25.00;5.53;;;7.80;99.90;;;;;;5093574;28;20500;-53
2024/01/25 03:10:43;;;;;;;38.22;6.63;;;7.80;99.90;;;;;;5093854;28;20234;-53
2024/01/25 03:13:08;;;;;;;31.63;6.40;;;7.80;99.90;;;;;;5094341;28;20093;-54
2024/01/25 03:15:34;;;;;;;28.90;6.95;;;7.80;99.90;;;;;;5094254;28;20050;-53
2024/01/25 03:17:59;;;;;;;36.97;6.15;;;7.80;99.90;;;;;;5094157;28;20169;-53
2024/01/25 03:20:25;;;;;;;32.90;6.63;;;7.80;99.90;;;;;;5095275;28;20028;-53
2024/01/25 03:22:51;;;;;;;35.78;6.50;;;7.80;99.90;;;;;;5092721;28;20503;-53
2024/01/25 03:25:16;;;;;;;36.67;5.97;;;7.80;99.90;;;;;;5096141;28;20020;-53
2024/01/25 03:27:42;;;;;;;30.30;6.63;;;7.80;99.90;;;;;;5099127;28;20405;-52
2024/01/25 03:30:08;;;;;;;35.47;7.97;;;7.80;99.90;;;;;;5099587;28;20549;-53
2024/01/25 03:32:34;;;;;;;26.65;6.10;;;7.80;99.90;;;;;;5097461;28;20106;-53
2024/01/25 03:35:00;;;;;;;34.65;6.20;;;7.70;99.90;;;;;;5099102;28;20102;-53
2024/01/25 03:37:25;;;;;;;36.05;5.85;;;7.70;99.90;;;;;;5101229;28;20028;-53
2024/01/25 03:39:51;;;;;;;39.15;6.82;;;7.70;99.90;;;;;;5095985;28;20473;-53
2024/01/25 03:42:17;;;;;;;40.60;7.20;;;7.70;99.90;;;;;;5093149;28;20059;-53
2024/01/25 03:44:44;;;;;;;30.30;6.45;;;7.70;99.90;;;;;;5094101;28;20012;-52
2024/01/25 03:47:10;;;;;;;32.78;6.32;;;7.70;99.90;;;;;;5096828;28;20016;-53
2024/01/25 03:49:36;;;;;;;36.90;6.53;;;7.70;99.90;;;;;;5093396;28;20043;-50
2024/01/25 03:52:02;;;;;;;32.90;7.07;;;7.70;99.90;;;;;;5092027;28;20023;-52
2024/01/25 03:54:28;;;;;;;32.63;7.03;;;7.70;99.90;;;;;;5094421;28;20020;-52
2024/01/25 03:56:54;;;;;;;31.13;5.93;;;7.70;99.90;;;;;;5093057;28;20507;-52
2024/01/25 03:59:20;;;;;;;32.42;6.80;;;7.70;99.90;;;;;;5095016;28;20013;-53
2024/01/25 04:01:49;;;;;;;37.80;6.43;;;7.70;99.90;;;;;;5094866;28;20021;-53
2024/01/25 04:04:15;;;;;;;38.10;6.70;;;7.70;99.90;;;;;;5094166;28;20392;-53
2024/01/25 04:06:48;;;;;;;31.30;5.82;;;7.70;99.90;;;;;;5094942;28;20024;-51
2024/01/25 04:09:17;;;;;;;21.92;5.82;;;7.60;99.90;;;;;;5095011;28;20024;-53
2024/01/25 04:11:42;;;;;;;26.38;7.07;;;7.70;99.90;;;;;;5094886;28;20019;-55
2024/01/25 04:14:08;;;;;;;31.33;5.47;;;7.70;99.90;;;;;;5091631;28;20031;-52
2024/01/25 04:16:34;;;;;;;41.88;7.03;;;7.60;99.90;;;;;;5093544;28;20054;-52
2024/01/25 04:19:00;;;;;;;33.13;6.38;;;7.60;99.90;;;;;;5092117;28;20035;-52
2024/01/25 04:21:26;;;;;;;36.45;6.10;;;7.60;99.90;;;;;;5092008;28;20027;-49
2024/01/25 04:23:52;;;;;;;35.58;7.85;;;7.60;99.90;;;;;;5091170;28;20228;-53
2024/01/25 04:26:18;;;;;;;45.78;7.40;;;7.60;99.90;;;;;;5092160;28;20366;-52
2024/01/25 04:28:43;;;;;;;30.02;6.10;;;7.60;99.90;;;;;;5092190;28;20020;-52
2024/01/25 04:31:09;;;;;;;39.97;7.07;;;7.50;99.90;;;;;;5092355;28;20047;-52
2024/01/25 04:33:34;;;;;;;34.85;6.90;;;7.60;99.90;;;;;;5092618;28;20093;-50
2024/01/25 04:36:00;;;;;;;34.78;5.70;;;7.60;99.90;;;;;;5094443;28;20027;-53
2024/01/25 04:38:26;;;;;;;31.73;5.63;;;7.60;99.90;;;;;;5096347;28;20091;-52
2024/01/25 04:40:51;;;;;;;31.02;6.40;;;7.60;99.90;;;;;;5093750;28;20404;-53
2024/01/25 04:43:17;;;;;;;27.02;5.20;;;7.50;99.90;;;;;;5095189;28;20445;-52
2024/01/25 04:45:42;;;;;;;32.30;7.28;;;7.50;99.90;;;;;;5095421;28;20022;-53
2024/01/25 04:48:08;;;;;;;33.42;7.05;;;7.50;99.90;;;;;;5094349;28;20020;-53
2024/01/25 04:50:35;;;;;;;26.08;6.72;;;7.50;99.90;;;;;;5094691;28;20019;-55
2024/01/25 04:53:03;;;;;;;31.85;8.23;;;7.50;99.90;;;;;;5092812;28;20649;-52
2024/01/25 04:55:29;;;;;;;37.28;7.00;;;7.50;99.90;;;;;;5096729;28;20051;-53
2024/01/25 04:57:55;;;;;;;41.65;7.03;;;7.50;99.90;;;;;;5094135;28;20024;-53
2024/01/25 05:00:22;;;;;;;36.35;6.28;;;7.50;99.90;;;;;;5096070;28;20020;-53
2024/01/25 05:02:48;;;;;;;37.45;7.05;;;7.50;99.90;;;;;;5094681;28;20054;-51
2024/01/25 05:05:14;;;;;;;31.90;6.22;;;7.50;99.90;;;;;;5095032;28;20016;-50
2024/01/25 05:07:39;;;;;;;22.00;6.35;;;7.50;99.90;;;;;;5094465;28;20385;-50
2024/01/25 05:10:05;;;;;;;28.63;5.72;;;7.50;99.90;;;;;;5094187;28;20031;-53
2024/01/25 05:12:31;;;;;;;28.60;5.00;;;7.50;99.90;;;;;;5096131;28;20118;-52
2024/01/25 05:14:58;;;;;;;33.88;6.38;;;7.50;99.90;;;;;;5094163;28;20052;-53
2024/01/25 05:17:24;;;;;;;39.67;6.65;;;7.40;99.90;;;;;;5096107;28;20024;-53
2024/01/25 05:19:49;;;;;;;32.20;5.72;;;7.40;99.90;;;;;;5094557;28;20102;-52
2024/01/25 05:22:15;;;;;;;26.27;5.70;;;7.40;99.90;;;;;;5094420;28;20439;-55
2024/01/25 05:24:40;;;;;;;34.92;5.47;;;7.40;99.90;;;;;;5096046;28;20024;-52
2024/01/25 05:27:06;;;;;;;41.70;6.82;;;7.40;99.90;;;;;;5094375;28;20066;-53
2024/01/25 05:29:31;;;;;;;26.30;5.82;;;7.40;99.90;;;;;;5096943;28;20019;-53
2024/01/25 05:31:57;;;;;;;34.17;6.72;;;7.40;99.90;;;;;;5094207;28;20477;-54
2024/01/25 05:34:23;;;;;;;30.75;5.47;;;7.30;99.90;;;;;;5096299;28;20028;-53
2024/01/25 05:36:48;;;;;;;37.55;6.32;;;7.30;99.90;;;;;;5094911;28;20034;-52
2024/01/25 05:39:14;;;;;;;26.02;5.18;;;7.40;99.90;;;;;;5094548;28;20031;-54
2024/01/25 05:41:40;;;;;;;33.75;6.95;;;7.40;99.90;;;;;;5095947;28;20090;-53
2024/01/25 05:44:06;;;;;;;28.02;5.40;;;7.40;99.90;;;;;;5094642;28;20099;-51
2024/01/25 05:46:31;;;;;;;25.60;5.05;;;7.40;99.90;;;;;;5097158;28;20016;-52
2024/01/25 05:48:57;;;;;;;32.35;5.72;;;7.30;99.90;;;;;;5094533;28;20024;-51
2024/01/25 05:51:22;;;;;;;35.00;6.10;;;7.30;99.90;;;;;;5095686;28;20073;-53
2024/01/25 05:53:48;;;;;;;34.13;6.43;;;7.30;99.90;;;;;;5095376;28;20481;-53
2024/01/25 05:56:13;;;;;;;35.60;6.07;;;7.30;99.90;;;;;;5090023;28;20020;-52
2024/01/25 05:58:39;;;;;;;44.03;7.60;;;7.30;99.90;;;;;;5088407;28;20077;-53
2024/01/25 06:01:04;;;;;;;39.58;6.00;;;7.30;99.90;;;;;;5086783;28;20393;-53
2024/01/25 06:03:30;;;;;;;32.53;5.20;;;7.30;99.90;;;;;;5089358;28;20131;-53
2024/01/25 06:05:56;;;;;;;35.58;6.85;;;7.30;99.90;;;;;;5088637;28;20020;-51
2024/01/25 06:08:21;;;;;;;38.90;7.43;;;7.30;99.90;;;;;;5088950;28;20536;-52
2024/01/25 06:10:47;;;;;;;32.22;5.90;;;7.30;99.90;;;;;;5088074;28;20396;-51
2024/01/25 06:13:13;;;;;;;28.98;5.90;;;7.20;99.90;;;;;;5087958;28;20119;-52
2024/01/25 06:15:39;;;;;;;41.85;7.07;;;7.20;99.90;;;;;;5088449;28;20103;-51
2024/01/25 06:18:04;;;;;;;28.95;5.57;;;7.20;99.90;;;;;;5087356;28;20082;-53
2024/01/25 06:20:30;;;;;;;34.42;6.50;;;7.30;99.90;;;;;;5088729;28;20024;-50
2024/01/25 06:22:56;;;;;;;35.50;6.45;;;7.20;99.90;;;;;;5087259;28;20048;-49
2024/01/25 06:25:22;;;;;;;35.67;6.13;;;7.20;99.90;;;;;;5088888;28;20016;-52
2024/01/25 06:27:48;;;;;;;34.55;5.70;;;7.20;99.90;;;;;;5089010;28;20096;-51
2024/01/25 06:30:14;;;;;;;33.88;6.43;;;7.20;99.90;;;;;;5089123;28;20454;-53
2024/01/25 06:32:39;;;;;;;38.00;6.70;;;7.20;99.90;;;;;;5086475;28;20034;-51
2024/01/25 06:35:06;;;;;;;33.30;5.93;;;7.20;99.90;;;;;;5088616;28;20028;-53
2024/01/25 06:37:31;;;;;;;38.00;5.97;;;7.20;99.90;;;;;;5087416;28;20088;-53
2024/01/25 06:39:57;;;;;;;34.55;7.00;;;7.10;99.90;;;;;;5087901;28;20036;-53
2024/01/25 06:42:22;;;;;;;32.80;6.72;;;7.10;99.90;;;;;;5090207;28;20066;-53
2024/01/25 06:44:48;;;;;;;33.38;7.63;;;7.10;99.90;;;;;;5095934;28;20024;-53
2024/01/25 06:47:14;;;;;;;39.08;7.18;;;7.10;99.90;;;;;;5094107;28;20028;-53
2024/01/25 06:49:39;;;;;;;35.75;7.53;;;7.10;99.90;;;;;;5089941;28;20112;-50
2024/01/25 06:52:05;;;;;;;34.53;6.72;;;7.10;99.90;;;;;;5090699;28;20539;-53
2024/01/25 06:54:31;;;;;;;28.25;5.82;;;7.10;99.90;;;;;;5094792;28;20493;-53
2024/01/25 06:56:57;;;;;;;35.33;6.35;;;7.10;99.90;;;;;;5094417;28;20032;-53
2024/01/25 06:59:23;;;;;;;41.47;8.00;;;7.10;99.90;;;;;;5095467;28;20044;-53
2024/01/25 07:01:49;;;;;;;41.08;7.25;;;7.10;99.90;;;;;;5096440;28;20063;-52
2024/01/25 07:04:15;;;;;;;28.33;5.35;;;7.10;99.90;;;;;;5098582;28;20468;-58
2024/01/25 07:06:40;;;;;;;25.45;5.63;;;7.10;99.90;;;;;;5101830;28;20046;-53
2024/01/25 07:09:06;;;;;;;34.83;6.13;;;7.00;99.90;;;;;;5098807;28;20463;-52
2024/01/25 07:11:32;;;;;;;39.30;8.30;;;7.10;99.90;;;;;;5100208;28;20119;-53
2024/01/25 07:13:57;;;;;;;31.77;6.97;;;7.10;99.90;;;;;;5099316;28;20032;-52
2024/01/25 07:16:23;;;;;;;34.78;6.63;;;7.00;99.90;;;;;;5100673;28;20016;-50
2024/01/25 07:18:49;;;;;;;33.63;6.97;;;7.00;99.90;;;;;;5099605;28;20030;-53
2024/01/25 07:21:14;;;;;;;21.63;5.88;;;7.00;99.90;;;;;;5098885;28;20059;-52
2024/01/25 07:23:40;;;;;;;36.53;8.68;;;7.00;99.90;;;;;;5102050;28;20365;-54
2024/01/25 07:26:05;;;;;;;36.85;7.15;;;7.10;99.90;;;;;;5098612;28;20191;-50
2024/01/25 07:28:31;;;;;;;36.45;7.28;;;7.10;99.90;;;;;;5100513;28;20148;-53
2024/01/25 07:30:57;;;;;;;40.33;6.47;;;7.10;99.90;;;;;;5099371;28;20362;-53
2024/01/25 07:33:22;;;;;;;37.10;5.55;;;7.10;99.90;;;;;;5100466;28;20024;-52
2024/01/25 07:35:48;;;;;;;30.55;6.05;;;7.10;99.90;;;;;;5100594;28;20058;-53
2024/01/25 07:38:17;;;;;;;39.63;5.90;;;7.00;99.90;;;;;;5097988;28;20032;-52
2024/01/25 07:40:43;;;;;;;28.73;5.88;;;7.10;99.90;;;;;;5099531;28;20085;-53
2024/01/25 07:43:08;;;;;;;35.80;7.47;;;7.00;99.90;;;;;;5098948;28;20470;-51
2024/01/25 07:45:34;;;;;;;23.90;5.90;;;7.00;99.90;;;;;;5102198;28;20015;-54
2024/01/25 07:48:00;;;;;;;27.70;5.60;;;7.10;99.90;;;;;;5098409;28;20023;-53
2024/01/25 07:50:25;;;;;;;21.17;5.32;;;7.10;99.90;;;;;;5100964;28;20031;-53
2024/01/25 07:52:51;;;;;;;27.63;5.45;;;7.10;99.90;;;;;;5104842;28;20035;-53
2024/01/25 07:55:17;;;;;;;22.55;5.45;;;7.10;99.90;;;;;;5098867;28;20034;-53
2024/01/25 07:57:43;;;;;;;33.78;5.88;;;7.10;99.90;;;;;;5102265;28;20412;-51
2024/01/25 08:00:09;;;;;;;24.42;5.53;;;7.10;99.90;;;;;;5098925;28;20020;-52
2024/01/25 08:02:35;;;;;;;33.72;7.53;;;7.10;99.90;;;;;;5101959;28;20689;-49
2024/01/25 08:05:02;;;;;;;29.65;6.50;;;7.10;99.90;;;;;;5099778;28;20495;-53
2024/01/25 08:07:28;;;;;;;30.58;5.97;;;7.10;99.90;;;;;;5100323;28;20020;-53
2024/01/25 08:09:57;;;;;;;26.33;5.50;;;7.10;99.90;;;;;;5100786;28;20472;-52
2024/01/25 08:12:23;;;;;;;27.35;6.00;;;7.20;99.90;;;;;;5100872;28;20015;-53
2024/01/25 08:14:49;;;;;;;29.38;6.15;;;7.20;99.90;;;;;;5099526;28;20131;-52
2024/01/25 08:17:15;;;;;;;31.83;6.05;;;7.20;99.90;;;;;;5099467;28;20095;-53
2024/01/25 08:19:40;;;;;;;27.67;5.28;;;7.20;99.90;;;;;;5102329;28;20501;-53
2024/01/25 08:22:06;;;;;;;33.38;6.35;;;7.20;99.90;;;;;;5098700;28;20047;-52
2024/01/25 08:24:31;;;;;;;39.22;6.20;;;7.20;99.90;;;;;;5102147;28;20464;-52
2024/01/25 08:26:57;;;;;;;32.38;5.82;;;7.20;99.90;;;;;;5100223;28;20523;-53
2024/01/25 08:29:22;;;;;;;27.83;6.35;;;7.20;99.90;;;;;;5100840;28;20734;-53
2024/01/25 08:31:48;;;;;;;26.55;6.82;;;7.20;99.90;;;;;;5101099;28;20031;-53
2024/01/25 08:34:14;;;;;;;31.52;6.72;;;7.20;99.90;;;;;;5099476;28;20297;-53
2024/01/25 08:36:40;;;;;;;40.00;5.80;;;7.20;99.90;;;;;;5102413;28;20031;-53
2024/01/25 08:39:05;;;;;;;45.17;8.40;;;7.20;99.90;;;;;;5099044;28;20035;-52
2024/01/25 08:41:31;;;;;;;25.13;6.05;;;7.20;99.90;;;;;;5101783;28;20027;-51
2024/01/25 08:43:56;;;;;;;35.58;5.95;;;7.20;99.90;;;;;;5099308;28;20420;-53
2024/01/25 08:46:22;;;;;;;45.72;6.75;;;7.20;99.90;;;;;;5100495;28;20480;-52
2024/01/25 08:48:47;;;;;;;27.88;5.65;;;7.20;99.90;;;;;;5102094;28;20016;-53
2024/01/25 08:51:13;;;;;;;22.83;5.00;;;7.30;99.90;;;;;;5098841;28;20024;-53
2024/01/25 08:53:39;;;;;;;40.60;6.53;;;7.30;99.90;;;;;;5102431;28;20023;-54
2024/01/25 08:56:04;;;;;;;38.72;5.28;;;7.30;99.90;;;;;;5099570;27;20047;-53
2024/01/25 08:58:30;;;;;;;24.65;5.38;;;7.30;99.90;;;;;;5101778;28;20035;-52
2024/01/25 09:00:56;;;;;;;33.35;6.28;;;7.30;99.90;;;;;;5100254;27;20441;-53
2024/01/25 09:03:22;;;;;;;34.55;5.78;;;7.30;99.90;;;;;;5099379;28;20093;-50
2024/01/25 09:05:48;;;;;;;30.98;4.88;;;7.30;99.90;;;;;;5102285;28;20015;-52
2024/01/25 09:08:14;;;;;;;31.73;6.15;;;7.40;99.90;;;;;;5099361;28;20016;-49
2024/01/25 09:10:41;;;;;;;31.35;6.25;;;7.40;99.90;;;;;;5102162;28;20091;-52
2024/01/25 09:13:06;;;;;;;34.38;7.40;;;7.40;99.90;;;;;;5099321;28;20448;-52
2024/01/25 09:15:32;;;;;;;37.75;6.95;;;7.40;99.90;;;;;;5102259;28;20055;-53
2024/01/25 09:17:58;;;;;;;34.20;6.53;;;7.40;99.90;;;;;;5100650;28;20034;-52
2024/01/25 09:20:23;;;;;;;36.30;6.55;;;7.40;99.90;;;;;;5101501;28;20020;-51
2024/01/25 09:22:49;;;;;;;22.73;6.32;;;7.40;99.90;;;;;;5100560;28;20008;-52
2024/01/25 09:25:14;;;;;;;28.45;6.05;;;7.40;99.90;;;;;;5099420;28;20016;-49
2024/01/25 09:27:40;;;;;;;39.50;7.30;;;7.40;99.90;;;;;;5101984;28;20068;-50
2024/01/25 09:30:06;;;;;;;29.95;6.07;;;7.50;99.90;;;;;;5099630;28;20247;-50
2024/01/25 09:32:32;;;;;;;28.60;6.00;;;7.50;99.90;;;;;;5101660;28;20022;-49
2024/01/25 09:34:57;;;;;;;35.35;7.22;;;7.50;99.90;;;;;;5099499;28;20479;-51
2024/01/25 09:37:24;;;;;;;38.13;7.35;;;7.50;99.90;;;;;;5100640;28;20024;-50
2024/01/25 09:39:51;;;;;;;34.90;6.20;;;7.50;99.90;;;;;;5102302;28;20016;-53
2024/01/25 09:42:18;;;;;;;44.78;7.55;;;7.50;99.90;;;;;;5099533;28;20012;-53
2024/01/25 09:44:43;;;;;;;28.83;7.07;;;7.50;99.90;;;;;;5101174;28;20496;-51
2024/01/25 09:47:10;;;;;;;25.23;6.13;;;7.50;99.90;;;;;;5098167;28;20016;-52
2024/01/25 09:49:35;;;;;;;36.33;7.43;;;7.50;99.90;;;;;;5092480;28;20019;-52
2024/01/25 09:52:06;;;;;;;41.45;7.15;;;7.50;99.90;;;;;;5100679;28;20026;-50
2024/01/25 09:54:35;;;;;;;37.83;7.50;;;7.60;99.90;;;;;;5102212;28;20104;-51
2024/01/25 09:57:07;;;;;;;34.50;6.80;;;7.60;99.90;;;;;;5100382;28;20107;-52
2024/01/25 09:59:33;;;;;;;28.63;6.38;;;7.60;99.90;;;;;;5095417;28;20015;-52
2024/01/25 10:02:02;;;;;;;35.22;6.25;;;7.60;99.90;;;;;;5099259;28;20378;-51
2024/01/25 10:04:27;;;;;;;33.13;6.93;;;7.70;99.90;;;;;;5101565;28;20112;-51
2024/01/25 10:06:57;;;;;;;35.85;6.68;;;7.80;99.90;;;;;;5102619;28;20051;-53
2024/01/25 10:09:23;;;;;;;39.95;6.50;;;7.80;99.90;;;;;;5096382;28;20389;-52
2024/01/25 10:11:49;;;;;;;31.17;5.97;;;7.90;99.90;;;;;;5102586;28;20024;-53
2024/01/25 10:14:14;;;;;;;31.42;6.15;;;7.90;99.90;;;;;;5099795;28;20050;-53
2024/01/25 10:16:40;;;;;;;27.30;7.05;;;8.00;99.90;;;;;;5102812;28;20141;-52
2024/01/25 10:19:08;;;;;;;27.40;7.07;;;8.00;99.90;;;;;;5100508;28;20110;-53
2024/01/25 10:21:36;;;;;;;42.17;10.93;;;7.90;99.90;;;;;;5102535;28;20024;-51
2024/01/25 10:24:02;;;;;;;25.83;6.35;;;8.00;99.90;;;;;;5101609;28;20034;-50
2024/01/25 10:26:28;;;;;;;32.95;7.45;;;8.00;99.90;;;;;;5092731;28;20020;-53
2024/01/25 10:28:54;;;;;;;30.42;7.20;;;8.10;99.90;;;;;;5101058;28;20019;-50
2024/01/25 10:31:22;;;;;;;27.98;6.80;;;8.00;99.90;;;;;;5098883;28;20388;-52
2024/01/25 10:33:48;;;;;;;26.17;6.00;;;8.10;99.90;;;;;;5102935;28;20107;-51
2024/01/25 10:36:14;;;;;;;35.00;6.15;;;8.20;99.90;;;;;;5100456;28;20123;-51
2024/01/25 10:38:42;;;;;;;28.08;5.78;;;8.20;99.90;;;;;;5105026;28;20033;-51
2024/01/25 10:41:07;;;;;;;30.35;6.05;;;8.20;99.90;;;;;;5104489;28;20028;-50
2024/01/25 10:43:33;;;;;;;29.42;6.85;;;8.20;99.90;;;;;;5106608;28;20545;-51
2024/01/25 10:45:59;;;;;;;36.88;7.07;;;8.10;99.90;;;;;;5105957;28;20024;-51
2024/01/25 10:48:26;;;;;;;24.38;6.13;;;8.20;99.90;;;;;;5105497;28;20542;-50
2024/01/25 10:50:55;;;;;;;23.55;6.20;;;8.30;99.90;;;;;;5106890;28;20080;-51
2024/01/25 10:53:23;;;;;;;21.33;5.95;;;8.60;99.90;;;;;;5105161;28;20024;-51
2024/01/25 10:55:49;;;;;;;23.17;6.38;;;8.70;99.90;;;;;;5105689;28;20043;-53
2024/01/25 10:58:16;;;;;;;29.02;6.93;;;8.70;99.90;;;;;;5104263;28;20055;-52
2024/01/25 11:00:41;;;;;;;36.70;6.18;;;8.70;99.90;;;;;;5107003;28;20108;-51
2024/01/25 11:03:08;;;;;;;24.23;5.78;;;8.80;99.90;;;;;;5105234;28;20481;-50
2024/01/25 11:05:33;;;;;;;22.00;5.50;;;8.90;99.90;;;;;;5106992;28;20480;-52
2024/01/25 11:08:00;;;;;;;24.40;5.18;;;9.40;99.90;;;;;;5101321;28;20089;-53
2024/01/25 11:10:27;;;;;;;26.10;6.13;;;9.30;99.90;;;;;;5105738;28;20101;-52
2024/01/25 11:13:00;;;;;;;21.17;5.88;;;9.20;99.90;;;;;;5106752;28;20047;-53
2024/01/25 11:15:36;;;;;;;28.50;5.90;;;9.10;99.90;;;;;;5106568;28;20019;-51
2024/01/25 11:18:06;;;;;;;27.38;6.03;;;9.10;99.90;;;;;;5105292;28;20048;-51
2024/01/25 11:20:33;;;;;;;25.92;6.35;;;9.10;99.90;;;;;;5105698;28;20469;-54
2024/01/25 11:23:06;;;;;;;28.70;5.97;;;9.00;99.90;;;;;;5105488;28;20469;-50
2024/01/25 11:25:37;;;;;;;16.50;4.88;;;8.90;99.90;;;;;;5104909;28;20008;-50
2024/01/25 11:28:04;;;;;;;25.88;5.97;;;8.80;99.90;;;;;;5102358;28;20028;-52
2024/01/25 11:30:34;;;;;;;28.70;5.55;;;8.80;99.90;;;;;;5106046;28;21071;-51
2024/01/25 11:32:59;;;;;;;30.23;5.72;;;8.70;99.90;;;;;;5106606;27;20028;-49
2024/01/25 11:35:25;;;;;;;29.98;5.88;;;8.70;99.90;;;;;;5105348;28;20047;-53
2024/01/25 11:37:54;;;;;;;32.13;5.75;;;8.80;99.90;;;;;;5106945;28;20094;-49
2024/01/25 11:40:20;;;;;;;25.25;5.95;;;8.70;99.90;;;;;;5103132;28;20039;-49
2024/01/25 11:42:48;;;;;;;29.83;6.05;;;8.50;99.90;;;;;;5106689;27;20079;-49
2024/01/25 11:45:14;;;;;;;31.52;6.18;;;8.50;99.90;;;;;;5104650;28;20020;-52
2024/01/25 11:47:41;;;;;;;27.70;6.68;;;8.50;99.90;;;;;;5105609;28;20011;-50
2024/01/25 11:50:09;;;;;;;21.90;5.38;;;8.70;99.90;;;;;;5103371;28;20027;-52
2024/01/25 11:52:35;;;;;;;45.38;6.82;;;8.90;99.90;;;;;;5106427;28;20028;-52
2024/01/25 11:55:06;;;;;;;31.20;5.95;;;9.10;99.90;;;;;;5106482;28;20032;-50
2024/01/25 11:57:34;;;;;;;21.77;5.80;;;9.20;99.90;;;;;;5106312;28;20028;-49
2024/01/25 12:00:00;;;;;;;31.00;6.00;;;9.30;99.90;;;;;;5105140;28;20515;-52
2024/01/25 12:02:27;;;;;;;40.90;6.43;;;9.40;99.90;;;;;;5105618;28;20035;-49
2024/01/25 12:04:55;;;;;;;31.08;6.22;;;9.40;99.90;;;;;;5107469;28;20020;-49
2024/01/25 12:07:20;;;;;;;29.23;5.43;;;9.40;99.90;;;;;;5104856;28;20077;-49
2024/01/25 12:10:02;;;;;;;23.80;6.88;;;9.60;99.90;;;;;;5107127;28;20015;-53
2024/01/25 12:12:28;;;;;;;28.67;5.82;;;9.90;99.90;;;;;;5105953;28;20028;-52
2024/01/25 12:15:00;;;;;;;24.80;6.50;;;10.30;99.90;;;;;;5107167;28;20023;-52
2024/01/25 12:17:33;;;;;;;37.47;6.93;;;10.50;99.90;;;;;;5105686;28;20020;-52
2024/01/25 12:19:59;;;;;;;25.95;5.45;;;10.30;99.90;;;;;;5107006;28;20073;-53
2024/01/25 12:22:27;;;;;;;19.35;5.43;;;10.30;99.90;;;;;;5105411;28;20504;-51
2024/01/25 12:24:54;;;;;;;26.00;5.53;;;10.20;99.90;;;;;;5107549;28;20023;-53
2024/01/25 12:27:25;;;;;;;23.67;5.78;;;10.10;99.90;;;;;;5104350;28;20035;-51
2024/01/25 12:29:55;;;;;;;16.73;4.80;;;9.80;99.90;;;;;;5106942;28;20080;-52
2024/01/25 12:32:21;;;;;;;19.98;4.78;;;9.60;99.90;;;;;;5104971;27;20089;-53
2024/01/25 12:34:57;;;;;;;28.08;5.90;;;9.80;99.90;;;;;;5107177;28;20020;-50
2024/01/25 12:37:23;;;;;;;26.55;5.93;;;9.60;99.90;;;;;;5105262;28;20016;-51
2024/01/25 12:39:50;;;;;;;31.02;6.65;;;9.60;99.90;;;;;;5105341;28;20031;-50